Time;durP1;ratioP1;P1;durP2;ratioP2;P2;SDS_P1;SDS_P2;PMS_P1;PMS_P2;Temp;Humidity;BMP_temperature;BMP_pressure;BME280_temperature;BME280_humidity;BME280_pressure;Samples;Min_cycle;Max_cycle;Signal;HPM_P1;HPM_P2
2022/03/23 00:00:27;;;;;;;7.97;5.73;;;;;;;;;;4971601;28;20212;-29
2022/03/23 00:02:55;;;;;;;11.63;6.23;;;;;;;;;;4973020;28;20228;-30
2022/03/23 00:05:25;;;;;;;9.03;5.63;;;;;;;;;;4990794;28;20270;-27
2022/03/23 00:07:52;;;;;;;7.57;5.60;;;;;;;;;;4988247;28;20294;-29
2022/03/23 00:10:19;;;;;;;7.73;5.57;;;;;;;;;;4990734;28;20285;-27
2022/03/23 00:12:47;;;;;;;8.43;5.97;;;;;;;;;;4994535;28;20203;-25
2022/03/23 00:15:14;;;;;;;8.50;5.50;;;;;;;;;;5001113;28;20227;-28
2022/03/23 00:17:42;;;;;;;8.53;5.53;;;;;;;;;;4982678;28;20245;-30
2022/03/23 00:20:11;;;;;;;7.00;5.40;;;;;;;;;;4989617;28;20208;-28
2022/03/23 00:22:40;;;;;;;7.00;4.90;;;;;;;;;;4985901;28;20208;-28
2022/03/23 00:25:08;;;;;;;11.00;5.70;;;;;;;;;;4978619;28;20416;-28
2022/03/23 00:27:35;;;;;;;10.30;5.77;;;;;;;;;;4971037;28;20208;-30
2022/03/23 00:30:03;;;;;;;11.57;6.20;;;;;;;;;;4972311;28;20326;-31
2022/03/23 00:32:30;;;;;;;11.10;6.87;;;;;;;;;;4977408;28;20216;-29
2022/03/23 00:34:58;;;;;;;12.70;7.10;;;;;;;;;;4989721;28;20220;-29
2022/03/23 00:37:25;;;;;;;14.23;6.97;;;;;;;;;;4984036;28;20232;-31
2022/03/23 00:39:54;;;;;;;8.57;5.37;;;;;;;;;;4983451;28;20204;-31
2022/03/23 00:42:21;;;;;;;8.50;5.90;;;;;;;;;;4977081;28;20236;-29
2022/03/23 00:44:48;;;;;;;8.90;5.47;;;;;;;;;;4971380;28;20228;-26
2022/03/23 00:47:16;;;;;;;7.43;5.70;;;;;;;;;;5001170;28;20265;-30
2022/03/23 00:49:43;;;;;;;10.67;5.60;;;;;;;;;;4985011;28;20220;-27
2022/03/23 00:52:10;;;;;;;10.37;6.40;;;;;;;;;;4985211;28;20207;-31
2022/03/23 00:54:38;;;;;;;6.70;5.07;;;;;;;;;;4991017;28;20220;-29
2022/03/23 00:57:07;;;;;;;8.73;5.83;;;;;;;;;;4974276;28;20217;-26
2022/03/23 00:59:35;;;;;;;10.17;6.00;;;;;;;;;;4974473;28;20264;-29
2022/03/23 01:02:02;;;;;;;8.00;5.73;;;;;;;;;;4984372;28;20203;-28
2022/03/23 01:04:30;;;;;;;9.93;6.13;;;;;;;;;;4993236;28;20208;-31
2022/03/23 01:06:58;;;;;;;8.53;5.50;;;;;;;;;;4976204;28;20293;-29
2022/03/23 01:09:25;;;;;;;8.27;5.67;;;;;;;;;;4978385;28;20211;-30
2022/03/23 01:11:53;;;;;;;11.40;5.57;;;;;;;;;;4991993;28;20270;-29
2022/03/23 01:14:23;;;;;;;9.23;5.97;;;;;;;;;;4984554;28;20211;-27
2022/03/23 01:16:51;;;;;;;8.37;6.03;;;;;;;;;;4994056;28;20210;-27
2022/03/23 01:19:20;;;;;;;7.70;5.87;;;;;;;;;;4990709;28;20311;-31
2022/03/23 01:21:47;;;;;;;8.63;6.17;;;;;;;;;;4989718;28;20208;-31
2022/03/23 01:24:14;;;;;;;9.17;6.30;;;;;;;;;;4973345;28;20236;-28
2022/03/23 01:26:41;;;;;;;7.50;5.83;;;;;;;;;;4974191;28;20280;-29
2022/03/23 01:29:09;;;;;;;7.97;5.60;;;;;;;;;;4982436;28;20208;-27
2022/03/23 01:31:38;;;;;;;10.60;5.90;;;;;;;;;;4977907;28;20239;-28
2022/03/23 01:34:05;;;;;;;9.40;5.87;;;;;;;;;;4973077;28;20566;-26
2022/03/23 01:36:33;;;;;;;9.93;6.03;;;;;;;;;;4979882;28;20312;-30
2022/03/23 01:39:00;;;;;;;12.40;6.13;;;;;;;;;;4982646;28;20203;-29
2022/03/23 01:41:27;;;;;;;8.53;6.37;;;;;;;;;;4987018;28;20236;-29
2022/03/23 01:43:55;;;;;;;8.80;6.57;;;;;;;;;;4993167;28;20286;-25
2022/03/23 01:46:23;;;;;;;11.27;7.00;;;;;;;;;;4988473;28;20228;-26
2022/03/23 01:48:51;;;;;;;8.53;6.13;;;;;;;;;;4984591;28;20236;-28
2022/03/23 01:51:18;;;;;;;8.97;5.90;;;;;;;;;;4992885;28;20294;-30
2022/03/23 01:53:46;;;;;;;7.10;5.70;;;;;;;;;;4986627;28;20239;-30
2022/03/23 01:56:14;;;;;;;8.53;5.67;;;;;;;;;;4988828;28;20310;-29
2022/03/23 01:58:41;;;;;;;11.00;7.43;;;;;;;;;;4973480;28;20275;-30
2022/03/23 02:01:08;;;;;;;12.37;7.40;;;;;;;;;;4980009;28;20208;-27
2022/03/23 02:03:36;;;;;;;9.37;6.90;;;;;;;;;;4983548;28;20239;-27
2022/03/23 02:06:05;;;;;;;8.37;6.10;;;;;;;;;;4982636;28;20224;-29
2022/03/23 02:08:32;;;;;;;9.67;6.27;;;;;;;;;;4992627;28;20244;-31
2022/03/23 02:10:59;;;;;;;12.83;8.23;;;;;;;;;;4997437;28;20728;-29
2022/03/23 02:13:27;;;;;;;11.53;6.47;;;;;;;;;;4983360;28;20204;-27
2022/03/23 02:15:54;;;;;;;10.90;6.57;;;;;;;;;;4974986;28;20278;-28
2022/03/23 02:18:21;;;;;;;12.63;7.30;;;;;;;;;;4972998;28;20315;-29
2022/03/23 02:20:48;;;;;;;20.10;9.53;;;;;;;;;;4997817;28;20265;-31
2022/03/23 02:23:17;;;;;;;7.33;6.13;;;;;;;;;;4983819;28;20243;-31
2022/03/23 02:25:46;;;;;;;10.07;6.37;;;;;;;;;;4976148;28;20224;-30
2022/03/23 02:28:14;;;;;;;24.13;12.67;;;;;;;;;;4980404;28;20203;-27
2022/03/23 02:30:42;;;;;;;11.70;8.07;;;;;;;;;;4984381;28;20224;-25
2022/03/23 02:33:09;;;;;;;8.97;5.83;;;;;;;;;;4983634;28;20214;-25
2022/03/23 02:35:36;;;;;;;10.47;6.73;;;;;;;;;;4988659;28;20319;-29
2022/03/23 02:38:04;;;;;;;10.40;6.53;;;;;;;;;;4998138;28;20235;-28
2022/03/23 02:40:33;;;;;;;9.63;6.97;;;;;;;;;;4978329;28;20262;-32
2022/03/23 02:43:00;;;;;;;9.47;6.30;;;;;;;;;;4991978;28;20212;-31
2022/03/23 02:45:27;;;;;;;7.93;6.40;;;;;;;;;;4982236;28;20315;-29
2022/03/23 02:47:56;;;;;;;11.07;7.13;;;;;;;;;;4997981;28;20227;-26
2022/03/23 02:50:24;;;;;;;11.27;6.83;;;;;;;;;;4978134;28;20229;-25
2022/03/23 03:04:01;;;;;;;7.07;5.57;;;;;;;;;;4972714;28;20276;-30
2022/03/23 03:06:28;;;;;;;12.93;6.63;;;;;;;;;;4983142;28;20251;-29
2022/03/23 03:08:55;;;;;;;7.37;5.50;;;;;;;;;;4991572;28;20287;-28
2022/03/23 03:11:25;;;;;;;6.73;5.10;;;;;;;;;;4991378;28;20710;-26
2022/03/23 03:13:52;;;;;;;8.13;5.47;;;;;;;;;;4982505;28;20235;-27
2022/03/23 03:16:20;;;;;;;9.33;5.60;;;;;;;;;;4978404;28;20275;-28
2022/03/23 03:18:48;;;;;;;8.53;5.53;;;;;;;;;;4971446;28;20296;-26
2022/03/23 03:21:15;;;;;;;7.37;5.43;;;;;;;;;;4976452;28;20283;-29
2022/03/23 03:23:43;;;;;;;8.93;5.67;;;;;;;;;;4981671;28;20204;-27
2022/03/23 03:26:11;;;;;;;7.77;5.33;;;;;;;;;;4971664;28;20283;-32
2022/03/23 03:28:40;;;;;;;9.53;5.83;;;;;;;;;;4970334;28;20200;-30
2022/03/23 03:31:07;;;;;;;11.73;5.97;;;;;;;;;;4973688;28;20283;-31
2022/03/23 03:33:35;;;;;;;8.90;6.30;;;;;;;;;;4985695;28;20200;-27
2022/03/23 03:36:03;;;;;;;12.03;5.93;;;;;;;;;;4991074;28;20232;-29
2022/03/23 03:38:30;;;;;;;7.73;5.87;;;;;;;;;;4985653;28;20208;-29
2022/03/23 03:40:57;;;;;;;10.77;6.73;;;;;;;;;;4970978;28;20219;-31
2022/03/23 03:43:25;;;;;;;9.30;5.73;;;;;;;;;;4976078;28;20204;-24
2022/03/23 03:45:54;;;;;;;10.43;6.73;;;;;;;;;;4990633;28;20242;-30
2022/03/23 03:48:21;;;;;;;8.53;5.87;;;;;;;;;;4981318;28;20239;-32
2022/03/23 03:50:49;;;;;;;8.27;5.77;;;;;;;;;;4979261;28;20231;-31
2022/03/23 03:53:16;;;;;;;6.87;5.57;;;;;;;;;;4990483;28;20211;-26
2022/03/23 03:55:43;;;;;;;5.73;5.13;;;;;;;;;;4989878;28;20239;-28
2022/03/23 03:58:12;;;;;;;12.73;6.87;;;;;;;;;;4980695;28;20344;-30
2022/03/23 04:00:40;;;;;;;9.20;5.97;;;;;;;;;;4974391;28;20213;-28
2022/03/23 04:03:08;;;;;;;7.63;5.63;;;;;;;;;;4982127;28;20239;-30
2022/03/23 04:05:37;;;;;;;9.10;6.50;;;;;;;;;;4975143;28;20275;-27
2022/03/23 04:08:04;;;;;;;8.90;6.90;;;;;;;;;;4971170;28;20208;-28
2022/03/23 04:10:31;;;;;;;9.23;5.73;;;;;;;;;;4978533;28;20263;-31
2022/03/23 04:12:59;;;;;;;7.67;5.70;;;;;;;;;;4978715;28;20231;-25
2022/03/23 04:15:26;;;;;;;8.30;6.10;;;;;;;;;;4970622;28;20283;-27
2022/03/23 04:17:54;;;;;;;7.70;6.03;;;;;;;;;;4969107;28;20254;-25
2022/03/23 04:20:23;;;;;;;7.00;6.30;;;;;;;;;;4978631;28;20378;-30
2022/03/23 04:22:50;;;;;;;7.17;5.90;;;;;;;;;;4979177;28;20215;-28
2022/03/23 04:25:18;;;;;;;7.93;5.73;;;;;;;;;;4989732;28;20228;-31
2022/03/23 04:27:46;;;;;;;6.20;5.33;;;;;;;;;;4983600;28;20213;-28
2022/03/23 04:30:13;;;;;;;7.30;5.90;;;;;;;;;;4989511;28;20207;-27
2022/03/23 04:32:41;;;;;;;8.67;6.23;;;;;;;;;;4993377;28;20227;-28
2022/03/23 04:35:08;;;;;;;6.87;5.77;;;;;;;;;;4993849;28;20278;-25
2022/03/23 04:37:37;;;;;;;8.07;5.57;;;;;;;;;;4989062;28;20207;-28
2022/03/23 04:40:05;;;;;;;7.57;6.10;;;;;;;;;;4986331;28;20208;-30
2022/03/23 04:42:33;;;;;;;7.63;5.63;;;;;;;;;;4993912;28;20200;-29
2022/03/23 04:45:00;;;;;;;7.33;5.90;;;;;;;;;;4991828;28;20255;-27
2022/03/23 04:47:27;;;;;;;7.70;5.67;;;;;;;;;;4981242;28;20200;-29
2022/03/23 04:49:55;;;;;;;9.17;6.77;;;;;;;;;;4983650;28;20208;-28
2022/03/23 04:52:22;;;;;;;9.67;6.17;;;;;;;;;;4974541;28;20283;-25
2022/03/23 04:54:56;;;;;;;8.60;5.83;;;;;;;;;;4974034;28;20244;-30
2022/03/23 04:57:23;;;;;;;6.03;5.43;;;;;;;;;;4989426;28;20204;-28
2022/03/23 04:59:51;;;;;;;8.67;5.40;;;;;;;;;;4976592;28;20204;-27
2022/03/23 05:02:18;;;;;;;9.00;5.63;;;;;;;;;;4977641;28;20208;-28
2022/03/23 05:04:45;;;;;;;9.23;6.63;;;;;;;;;;4973789;28;20283;-24
2022/03/23 05:07:13;;;;;;;8.30;6.03;;;;;;;;;;4981515;28;20232;-30
2022/03/23 05:09:40;;;;;;;9.03;5.00;;;;;;;;;;4973341;28;20208;-32
2022/03/23 05:12:09;;;;;;;9.63;6.30;;;;;;;;;;4983338;28;20323;-30
2022/03/23 05:14:37;;;;;;;8.57;5.80;;;;;;;;;;4988309;28;20204;-29
2022/03/23 05:17:04;;;;;;;8.03;5.50;;;;;;;;;;4993007;28;20215;-31
2022/03/23 05:19:31;;;;;;;8.13;6.50;;;;;;;;;;4984878;28;20224;-26
2022/03/23 05:21:58;;;;;;;8.57;5.73;;;;;;;;;;4983485;28;20271;-26
2022/03/23 05:24:26;;;;;;;9.73;6.63;;;;;;;;;;4979206;28;20209;-27
2022/03/23 05:26:53;;;;;;;10.00;6.00;;;;;;;;;;4974141;28;20197;-29
2022/03/23 05:29:22;;;;;;;8.67;5.77;;;;;;;;;;4978493;28;20236;-27
2022/03/23 05:31:49;;;;;;;6.53;5.53;;;;;;;;;;4986317;28;20234;-26
2022/03/23 05:34:16;;;;;;;8.90;6.07;;;;;;;;;;4983122;28;20239;-26
2022/03/23 05:36:43;;;;;;;9.93;6.10;;;;;;;;;;4976404;28;20224;-29
2022/03/23 05:39:11;;;;;;;8.30;5.80;;;;;;;;;;4984319;28;20232;-27
2022/03/23 05:41:38;;;;;;;7.93;6.00;;;;;;;;;;4975592;28;20196;-29
2022/03/23 05:44:06;;;;;;;12.63;6.60;;;;;;;;;;4975718;28;20216;-32
2022/03/23 05:46:35;;;;;;;10.57;5.80;;;;;;;;;;4976264;28;20223;-28
2022/03/23 05:49:03;;;;;;;8.87;6.10;;;;;;;;;;4977304;28;20208;-27
2022/03/23 05:51:30;;;;;;;9.17;6.13;;;;;;;;;;4978434;28;20223;-30
2022/03/23 05:53:57;;;;;;;7.80;5.93;;;;;;;;;;4990405;28;20213;-31
2022/03/23 05:56:25;;;;;;;9.33;5.60;;;;;;;;;;4988330;28;20220;-27
2022/03/23 05:58:53;;;;;;;6.60;5.90;;;;;;;;;;4976864;28;20208;-29
2022/03/23 06:01:20;;;;;;;8.33;6.10;;;;;;;;;;4981211;28;20205;-28
2022/03/23 06:03:49;;;;;;;10.10;6.27;;;;;;;;;;4991744;28;20210;-26
2022/03/23 06:06:17;;;;;;;10.33;6.40;;;;;;;;;;4989130;28;20239;-28
2022/03/23 06:08:44;;;;;;;9.10;6.70;;;;;;;;;;4987611;28;20278;-28
2022/03/23 06:11:12;;;;;;;7.23;5.97;;;;;;;;;;4988869;28;20227;-27
2022/03/23 06:13:39;;;;;;;9.93;5.80;;;;;;;;;;4991817;28;20251;-23
2022/03/23 06:16:08;;;;;;;10.53;6.57;;;;;;;;;;4989670;28;20264;-29
2022/03/23 06:18:36;;;;;;;10.57;6.43;;;;;;;;;;4990516;28;20204;-31
2022/03/23 06:21:04;;;;;;;8.60;6.57;;;;;;;;;;4989414;28;20244;-29
2022/03/23 06:23:32;;;;;;;8.73;7.17;;;;;;;;;;4991986;28;20208;-26
2022/03/23 06:25:59;;;;;;;10.83;6.33;;;;;;;;;;4995403;28;20888;-27
2022/03/23 06:28:26;;;;;;;10.73;7.17;;;;;;;;;;4993855;28;20247;-32
2022/03/23 06:30:54;;;;;;;7.83;6.63;;;;;;;;;;4985878;28;20201;-30
2022/03/23 06:33:21;;;;;;;9.63;6.33;;;;;;;;;;4982745;28;20288;-31
2022/03/23 06:35:49;;;;;;;8.80;6.63;;;;;;;;;;4985317;28;20230;-28
2022/03/23 06:38:18;;;;;;;12.43;7.20;;;;;;;;;;4985634;28;20200;-29
2022/03/23 06:40:45;;;;;;;9.30;6.67;;;;;;;;;;4980327;28;20274;-26
2022/03/23 06:43:12;;;;;;;8.00;6.17;;;;;;;;;;5000223;28;20204;-28
2022/03/23 06:45:42;;;;;;;10.13;6.73;;;;;;;;;;4998208;28;20278;-31
2022/03/23 06:48:09;;;;;;;8.07;6.30;;;;;;;;;;4978360;28;20313;-27
2022/03/23 06:50:36;;;;;;;10.10;7.10;;;;;;;;;;4979065;28;20219;-27
2022/03/23 06:53:04;;;;;;;11.30;7.23;;;;;;;;;;4977368;28;20221;-31
2022/03/23 06:55:33;;;;;;;9.83;6.57;;;;;;;;;;4989176;28;20228;-29
2022/03/23 06:58:00;;;;;;;9.83;6.80;;;;;;;;;;4994459;28;20295;-30
2022/03/23 07:00:27;;;;;;;11.70;7.37;;;;;;;;;;4997187;28;20204;-27
2022/03/23 07:02:55;;;;;;;10.53;6.67;;;;;;;;;;4986245;28;20201;-31
2022/03/23 07:05:22;;;;;;;8.30;6.70;;;;;;;;;;4974202;28;20307;-30
2022/03/23 07:10:47;;;;;;;11.37;7.40;;;;;;;;;;4931418;29;20202;-27
2022/03/23 07:13:15;;;;;;;9.47;7.57;;;;;;;;;;4976525;28;20232;-27
2022/03/23 07:15:44;;;;;;;11.97;8.03;;;;;;;;;;4993496;28;20228;-27
2022/03/23 07:18:11;;;;;;;10.27;6.87;;;;;;;;;;4994788;28;20435;-27
2022/03/23 07:20:38;;;;;;;9.60;7.50;;;;;;;;;;4998122;28;20208;-28
2022/03/23 07:23:05;;;;;;;9.43;7.47;;;;;;;;;;4993702;28;20204;-30
2022/03/23 07:25:33;;;;;;;10.83;7.70;;;;;;;;;;4991233;28;20232;-27
2022/03/23 07:28:02;;;;;;;10.97;7.40;;;;;;;;;;5000250;28;20247;-28
2022/03/23 07:30:30;;;;;;;10.30;7.77;;;;;;;;;;4987991;28;20212;-30
2022/03/23 07:32:57;;;;;;;10.30;7.77;;;;;;;;;;4993129;28;20227;-29
2022/03/23 07:35:24;;;;;;;10.17;7.67;;;;;;;;;;4987749;28;20233;-28
2022/03/23 07:37:51;;;;;;;8.77;7.87;;;;;;;;;;4997673;28;20205;-29
2022/03/23 07:40:19;;;;;;;10.53;7.53;;;;;;;;;;4993715;28;20255;-29
2022/03/23 07:42:46;;;;;;;15.40;8.40;;;;;;;;;;4991837;28;24921;-31
2022/03/23 07:45:15;;;;;;;13.87;8.60;;;;;;;;;;4990171;28;20231;-27
2022/03/23 07:47:43;;;;;;;12.40;8.30;;;;;;;;;;4996795;28;20235;-29
2022/03/23 07:50:11;;;;;;;10.20;7.90;;;;;;;;;;4992509;28;20260;-27
2022/03/23 07:52:38;;;;;;;9.57;7.87;;;;;;;;;;4988010;28;20253;-27
2022/03/23 07:55:06;;;;;;;11.03;8.60;;;;;;;;;;4989874;28;20277;-29
2022/03/23 07:57:34;;;;;;;11.27;8.10;;;;;;;;;;4979237;28;20232;-28
2022/03/23 08:00:01;;;;;;;11.40;8.70;;;;;;;;;;4971361;28;20212;-30
2022/03/23 08:02:30;;;;;;;8.70;7.40;;;;;;;;;;4970612;28;20233;-28
2022/03/23 08:04:58;;;;;;;11.53;8.20;;;;;;;;;;4982678;28;20224;-29
2022/03/23 08:07:25;;;;;;;11.93;8.50;;;;;;;;;;4984750;28;20208;-31
2022/03/23 08:09:52;;;;;;;10.80;8.67;;;;;;;;;;4991480;28;20275;-28
2022/03/23 08:12:19;;;;;;;12.17;9.27;;;;;;;;;;4986075;28;20259;-32
2022/03/23 08:14:47;;;;;;;13.03;8.70;;;;;;;;;;4989988;28;20257;-28
2022/03/23 08:17:15;;;;;;;9.43;7.93;;;;;;;;;;4970130;28;20200;-26
2022/03/23 08:19:43;;;;;;;11.93;8.23;;;;;;;;;;4969295;28;20209;-28
2022/03/23 08:22:11;;;;;;;11.53;8.00;;;;;;;;;;4996643;28;20204;-30
2022/03/23 08:24:38;;;;;;;11.57;8.20;;;;;;;;;;4983295;28;20213;-29
2022/03/23 08:27:06;;;;;;;10.13;7.87;;;;;;;;;;4978027;28;20204;-31
2022/03/23 08:29:33;;;;;;;13.07;8.37;;;;;;;;;;4970153;28;20239;-30
2022/03/23 08:32:00;;;;;;;10.30;8.23;;;;;;;;;;4984044;28;20271;-27
2022/03/23 08:34:28;;;;;;;9.13;7.87;;;;;;;;;;4989071;28;20213;-28
2022/03/23 08:36:56;;;;;;;10.13;7.90;;;;;;;;;;4971171;28;20212;-28
2022/03/23 08:39:23;;;;;;;9.20;7.90;;;;;;;;;;4970782;28;20213;-32
2022/03/23 08:41:51;;;;;;;11.67;9.07;;;;;;;;;;4997179;28;20204;-30
2022/03/23 08:44:18;;;;;;;11.57;8.47;;;;;;;;;;4988262;28;20236;-30
2022/03/23 08:46:45;;;;;;;13.00;8.40;;;;;;;;;;4989018;28;20234;-30
2022/03/23 08:49:13;;;;;;;12.20;8.10;;;;;;;;;;4975757;28;20717;-27
2022/03/23 08:51:41;;;;;;;10.30;8.33;;;;;;;;;;4971673;28;20227;-32
2022/03/23 08:54:09;;;;;;;9.83;8.23;;;;;;;;;;4969102;28;20308;-30
2022/03/23 08:56:37;;;;;;;11.37;8.20;;;;;;;;;;4988532;28;20281;-26
2022/03/23 08:59:04;;;;;;;10.60;8.50;;;;;;;;;;4985389;28;20209;-27
2022/03/23 09:01:31;;;;;;;12.93;8.83;;;;;;;;;;4989490;28;20239;-28
2022/03/23 09:04:01;;;;;;;10.70;8.40;;;;;;;;;;4988568;28;20231;-28
2022/03/23 09:06:29;;;;;;;12.07;8.37;;;;;;;;;;4979764;28;20236;-24
2022/03/23 09:08:57;;;;;;;11.63;7.90;;;;;;;;;;4972946;28;20208;-31
2022/03/23 09:11:25;;;;;;;11.83;9.23;;;;;;;;;;4973725;28;20267;-29
2022/03/23 09:13:52;;;;;;;14.57;9.33;;;;;;;;;;4996452;28;20231;-30
2022/03/23 09:16:20;;;;;;;12.33;8.77;;;;;;;;;;4994775;28;20259;-28
2022/03/23 09:18:47;;;;;;;13.13;8.47;;;;;;;;;;4996124;28;20678;-28
2022/03/23 09:21:14;;;;;;;11.73;8.33;;;;;;;;;;4985911;28;20248;-31
2022/03/23 09:23:41;;;;;;;11.77;9.83;;;;;;;;;;4983997;28;20213;-27
2022/03/23 09:26:09;;;;;;;14.53;9.13;;;;;;;;;;4995628;28;20282;-26
2022/03/23 09:28:38;;;;;;;13.37;9.27;;;;;;;;;;4995547;28;20215;-31
2022/03/23 09:31:06;;;;;;;14.10;9.17;;;;;;;;;;4999618;28;20212;-29
2022/03/23 09:33:33;;;;;;;12.53;9.27;;;;;;;;;;4984412;28;20217;-29
2022/03/23 09:36:01;;;;;;;11.30;9.33;;;;;;;;;;4975209;28;20284;-26
2022/03/23 09:38:29;;;;;;;17.10;9.70;;;;;;;;;;4991147;28;20270;-27
2022/03/23 09:40:57;;;;;;;15.50;10.40;;;;;;;;;;4995434;28;20215;-28
2022/03/23 09:43:25;;;;;;;13.57;9.57;;;;;;;;;;4975678;28;20213;-29
2022/03/23 09:45:53;;;;;;;13.90;10.73;;;;;;;;;;4976044;28;20224;-32
2022/03/23 09:48:26;;;;;;;13.27;8.90;;;;;;;;;;4992447;28;20236;-26
2022/03/23 09:50:55;;;;;;;17.00;9.77;;;;;;;;;;4984031;28;20197;-31
2022/03/23 09:53:23;;;;;;;12.67;9.43;;;;;;;;;;4975893;28;20279;-30
2022/03/23 09:55:51;;;;;;;15.53;10.23;;;;;;;;;;4977777;28;20271;-29
2022/03/23 09:58:18;;;;;;;12.03;9.47;;;;;;;;;;4992397;28;20207;-30
2022/03/23 10:00:46;;;;;;;14.03;10.03;;;;;;;;;;4987310;28;20200;-25
2022/03/23 10:03:31;;;;;;;13.63;9.63;;;;;;;;;;4994917;28;20212;-27
2022/03/23 10:06:16;;;;;;;12.23;9.60;;;;;;;;;;4993985;28;20228;-28
2022/03/23 10:09:05;;;;;;;13.80;9.40;;;;;;;;;;4973966;28;20209;-30
2022/03/23 10:11:50;;;;;;;12.37;9.60;;;;;;;;;;4975432;28;20204;-27
2022/03/23 10:14:32;;;;;;;14.07;9.63;;;;;;;;;;4979995;28;20785;-30
2022/03/23 10:17:18;;;;;;;12.43;9.73;;;;;;;;;;4940093;28;20212;-26
2022/03/23 10:19:45;;;;;;;13.57;8.93;;;;;;;;;;4978564;28;20209;-32
2022/03/23 10:22:14;;;;;;;14.73;9.17;;;;;;;;;;4988746;28;20301;-29
2022/03/23 10:24:43;;;;;;;12.60;9.50;;;;;;;;;;4993956;28;20220;-28
2022/03/23 10:27:11;;;;;;;15.00;9.87;;;;;;;;;;4981712;28;20279;-28
2022/03/23 10:29:47;;;;;;;11.53;8.70;;;;;;;;;;4973690;28;20208;-30
2022/03/23 10:32:14;;;;;;;10.03;8.13;;;;;;;;;;4990778;28;20215;-28
2022/03/23 10:34:43;;;;;;;16.17;8.10;;;;;;;;;;4986665;28;20227;-31
2022/03/23 10:37:10;;;;;;;13.23;8.97;;;;;;;;;;4993949;28;20211;-30
2022/03/23 10:39:38;;;;;;;12.03;8.97;;;;;;;;;;4983895;28;20211;-28
2022/03/23 10:42:12;;;;;;;9.70;8.00;;;;;;;;;;4994524;28;20212;-27
2022/03/23 10:44:39;;;;;;;11.37;6.67;;;;;;;;;;4995162;28;20269;-27
2022/03/23 10:47:07;;;;;;;8.93;7.90;;;;;;;;;;4996346;28;20215;-32
2022/03/23 10:49:38;;;;;;;14.07;8.83;;;;;;;;;;4992661;28;20204;-32
2022/03/23 10:52:09;;;;;;;11.43;8.10;;;;;;;;;;4983441;28;20236;-30
2022/03/23 10:54:38;;;;;;;11.73;8.40;;;;;;;;;;4974021;28;20283;-28
2022/03/23 10:57:13;;;;;;;10.40;8.37;;;;;;;;;;4986727;28;20212;-30
2022/03/23 10:59:46;;;;;;;11.07;7.70;;;;;;;;;;4995802;28;20207;-28
2022/03/23 11:02:17;;;;;;;8.63;7.10;;;;;;;;;;4982009;28;20279;-32
2022/03/23 11:04:49;;;;;;;10.27;7.20;;;;;;;;;;4973427;28;20231;-28
2022/03/23 11:07:35;;;;;;;8.93;6.80;;;;;;;;;;4997299;28;20204;-26
2022/03/23 11:15:51;;;;;;;10.30;7.07;;;;;;;;;;4982693;28;20243;-32
2022/03/23 11:18:19;;;;;;;12.30;7.10;;;;;;;;;;4985873;28;20216;-27
2022/03/23 11:20:47;;;;;;;8.00;6.67;;;;;;;;;;4985275;28;20204;-26
2022/03/23 11:23:23;;;;;;;7.00;6.23;;;;;;;;;;4974423;28;20205;-30
2022/03/23 11:25:50;;;;;;;8.43;6.67;;;;;;;;;;4989402;28;20231;-29
2022/03/23 11:28:20;;;;;;;7.27;6.13;;;;;;;;;;4985254;28;20204;-28
2022/03/23 11:30:48;;;;;;;8.00;6.60;;;;;;;;;;4992992;28;20215;-28
2022/03/23 11:33:17;;;;;;;8.37;7.40;;;;;;;;;;4990200;28;20220;-27
2022/03/23 11:35:48;;;;;;;9.50;7.30;;;;;;;;;;4992457;28;20608;-28
2022/03/23 11:38:17;;;;;;;10.20;6.87;;;;;;;;;;4974157;28;20201;-26
2022/03/23 11:40:44;;;;;;;9.33;6.10;;;;;;;;;;4973075;28;20209;-28
2022/03/23 11:43:12;;;;;;;9.27;7.10;;;;;;;;;;4993336;28;20242;-27
2022/03/23 11:45:42;;;;;;;8.67;7.27;;;;;;;;;;4984844;28;20227;-28
2022/03/23 11:48:12;;;;;;;9.90;6.90;;;;;;;;;;4993003;28;20250;-28
2022/03/23 11:50:47;;;;;;;10.87;7.47;;;;;;;;;;4988850;28;20205;-27
2022/03/23 11:53:19;;;;;;;9.03;7.67;;;;;;;;;;4992663;28;20255;-28
2022/03/23 11:55:50;;;;;;;10.43;7.20;;;;;;;;;;4984428;28;20238;-28
2022/03/23 11:58:18;;;;;;;7.67;6.77;;;;;;;;;;4976846;28;20219;-28
2022/03/23 12:00:50;;;;;;;8.63;6.77;;;;;;;;;;4995453;28;20275;-29
2022/03/23 12:03:32;;;;;;;10.03;6.77;;;;;;;;;;4991398;28;20203;-29
2022/03/23 12:06:09;;;;;;;8.57;6.80;;;;;;;;;;4992353;28;20255;-31
2022/03/23 12:08:48;;;;;;;11.37;7.83;;;;;;;;;;4991603;28;20266;-29
2022/03/23 12:11:33;;;;;;;15.37;7.37;;;;;;;;;;4988805;28;20209;-27
2022/03/23 12:14:02;;;;;;;8.70;7.17;;;;;;;;;;4973553;28;20264;-29
2022/03/23 12:16:48;;;;;;;9.60;6.70;;;;;;;;;;4982796;28;20224;-26
2022/03/23 12:19:18;;;;;;;10.07;6.57;;;;;;;;;;5000656;28;20267;-30
2022/03/23 12:21:49;;;;;;;9.10;7.53;;;;;;;;;;4989725;28;20196;-39
2022/03/23 12:24:20;;;;;;;11.50;6.90;;;;;;;;;;4988422;28;20565;-29
2022/03/23 12:26:52;;;;;;;7.97;7.17;;;;;;;;;;4976865;28;20228;-26
2022/03/23 12:29:23;;;;;;;9.60;7.47;;;;;;;;;;4992373;28;20192;-29
2022/03/23 12:31:50;;;;;;;7.27;6.57;;;;;;;;;;4990472;28;20192;-24
2022/03/23 12:34:20;;;;;;;7.83;7.00;;;;;;;;;;4987170;28;20238;-31
2022/03/23 12:36:58;;;;;;;8.70;6.90;;;;;;;;;;4982931;28;20201;-29
2022/03/23 12:39:40;;;;;;;8.63;7.10;;;;;;;;;;4973665;28;20235;-30
2022/03/23 12:42:32;;;;;;;9.97;7.27;;;;;;;;;;4979724;28;20219;-30
2022/03/23 12:45:10;;;;;;;8.83;7.23;;;;;;;;;;4970922;28;20240;-31
2022/03/23 12:47:39;;;;;;;8.10;7.20;;;;;;;;;;4973257;28;20208;-27
2022/03/23 12:58:32;;;;;;;12.73;7.60;;;;;;;;;;4986403;28;20220;-31
2022/03/23 13:01:10;;;;;;;9.57;7.50;;;;;;;;;;4992359;28;20213;-30
2022/03/23 13:03:52;;;;;;;8.03;6.67;;;;;;;;;;4975956;28;20231;-29
2022/03/23 13:06:21;;;;;;;9.17;7.43;;;;;;;;;;4983632;28;20238;-29
2022/03/23 13:08:52;;;;;;;9.80;6.97;;;;;;;;;;4980777;28;20204;-30
2022/03/23 13:11:23;;;;;;;7.93;6.67;;;;;;;;;;4995604;28;20299;-30
2022/03/23 13:13:51;;;;;;;8.30;6.80;;;;;;;;;;4991521;28;20310;-29
2022/03/23 13:16:20;;;;;;;7.80;7.00;;;;;;;;;;4986917;28;20260;-33
2022/03/23 13:18:48;;;;;;;9.93;7.70;;;;;;;;;;4977211;28;20220;-29
2022/03/23 13:21:16;;;;;;;8.50;6.47;;;;;;;;;;4975021;28;20205;-28
2022/03/23 13:23:46;;;;;;;7.07;6.30;;;;;;;;;;4983796;28;20197;-31
2022/03/23 13:26:18;;;;;;;8.97;6.67;;;;;;;;;;4978801;28;20243;-30
2022/03/23 13:28:47;;;;;;;9.17;6.80;;;;;;;;;;4995976;28;20278;-31
2022/03/23 13:31:14;;;;;;;8.70;6.87;;;;;;;;;;4991448;28;20209;-27
2022/03/23 13:33:43;;;;;;;9.43;7.30;;;;;;;;;;5005394;28;20224;-30
2022/03/23 13:36:23;;;;;;;9.47;7.53;;;;;;;;;;4996476;28;20232;-27
2022/03/23 13:47:30;;;;;;;7.97;6.90;;;;;;;;;;5051107;28;20205;-41
2022/03/23 13:49:58;;;;;;;8.17;6.80;;;;;;;;;;5039519;28;20214;-30
2022/03/23 13:52:29;;;;;;;10.70;7.07;;;;;;;;;;5042476;28;20214;-35
2022/03/23 13:54:56;;;;;;;10.43;7.47;;;;;;;;;;5032285;28;20306;-31
2022/03/23 13:57:29;;;;;;;7.33;6.40;;;;;;;;;;5024408;28;20207;-31
2022/03/23 13:59:56;;;;;;;9.07;6.60;;;;;;;;;;5043672;28;20206;-35
2022/03/23 14:02:30;;;;;;;9.80;6.73;;;;;;;;;;5054114;28;20278;-39
2022/03/23 14:04:58;;;;;;;8.43;6.53;;;;;;;;;;5027897;28;20227;-36
2022/03/23 14:07:47;;;;;;;9.70;6.37;;;;;;;;;;5039841;28;20202;-34
2022/03/23 14:10:15;;;;;;;8.37;6.87;;;;;;;;;;5014762;28;20262;-37
2022/03/23 14:12:43;;;;;;;6.87;6.07;;;;;;;;;;5013803;28;20203;-42
2022/03/23 14:15:11;;;;;;;8.90;6.37;;;;;;;;;;5028362;28;20232;-34
2022/03/23 14:17:38;;;;;;;8.90;6.30;;;;;;;;;;5041760;28;20198;-34
2022/03/23 14:20:06;;;;;;;8.87;6.57;;;;;;;;;;5034720;28;20203;-33
2022/03/23 14:22:34;;;;;;;7.43;6.00;;;;;;;;;;5029285;28;20724;-38
2022/03/23 14:25:02;;;;;;;6.80;5.90;;;;;;;;;;5020167;28;20282;-35
2022/03/23 14:27:32;;;;;;;7.93;6.37;;;;;;;;;;5039604;28;20206;-35
2022/03/23 14:30:11;;;;;;;7.53;5.73;;;;;;;;;;5028351;28;20206;-35
2022/03/23 14:32:39;;;;;;;11.17;7.10;;;;;;;;;;5029772;28;20207;-34
2022/03/23 14:35:10;;;;;;;7.97;6.23;;;;;;;;;;5041521;28;20281;-36
2022/03/23 14:37:38;;;;;;;10.17;6.63;;;;;;;;;;5034204;28;20191;-34
2022/03/23 14:40:20;;;;;;;8.87;6.93;;;;;;;;;;5029847;28;20237;-34
2022/03/23 14:42:48;;;;;;;8.13;6.20;;;;;;;;;;5041538;28;20198;-36
2022/03/23 14:45:30;;;;;;;10.07;6.30;;;;;;;;;;5051144;28;20225;-29
2022/03/23 14:47:59;;;;;;;7.30;5.70;;;;;;;;;;5051635;28;20241;-33
2022/03/23 14:50:26;;;;;;;8.93;6.57;;;;;;;;;;5030450;28;20273;-35
2022/03/23 14:52:53;;;;;;;8.00;6.63;;;;;;;;;;5030361;28;20212;-39
2022/03/23 14:55:24;;;;;;;6.73;5.73;;;;;;;;;;5039724;28;20226;-37
2022/03/23 14:57:51;;;;;;;11.20;5.97;;;;;;;;;;5032463;28;20212;-35
2022/03/23 15:00:20;;;;;;;7.70;6.10;;;;;;;;;;5033852;28;20264;-33
2022/03/23 15:02:49;;;;;;;8.80;6.10;;;;;;;;;;5035296;28;20203;-34
2022/03/23 15:13:30;;;;;;;8.30;6.67;;;;;;;;;;5051894;28;20180;-38
2022/03/23 15:15:57;;;;;;;8.07;6.60;;;;;;;;;;5029480;28;20285;-34
2022/03/23 15:18:28;;;;;;;7.37;6.67;;;;;;;;;;5050682;28;20209;-35
2022/03/23 15:20:55;;;;;;;7.90;6.50;;;;;;;;;;5053098;28;20201;-33
2022/03/23 15:23:22;;;;;;;9.43;7.10;;;;;;;;;;5046199;28;20207;-32
2022/03/23 15:25:50;;;;;;;7.13;6.43;;;;;;;;;;5036819;28;20226;-33
2022/03/23 15:28:17;;;;;;;11.37;6.97;;;;;;;;;;5036869;28;20252;-34
2022/03/23 15:30:47;;;;;;;9.83;7.13;;;;;;;;;;5052749;28;20409;-35
2022/03/23 15:33:19;;;;;;;13.67;6.80;;;;;;;;;;5045225;28;20215;-35